Time;durP1;ratioP1;P1;durP2;ratioP2;P2;SDS_P1;SDS_P2;PMS_P1;PMS_P2;Temp;Humidity;BMP_temperature;BMP_pressure;BME280_temperature;BME280_humidity;BME280_pressure;Samples;Min_cycle;Max_cycle;Signal;HPM_P1;HPM_P2
2023/10/29 00:00:17;;;;;;;7.50;2.70;;;11.70;99.90;;;;;;4970289;28;20023;-60
2023/10/29 00:02:44;;;;;;;9.75;2.28;;;11.60;99.90;;;;;;4968476;28;20103;-61
2023/10/29 00:05:09;;;;;;;6.60;2.65;;;11.70;99.90;;;;;;4968352;28;20495;-61
2023/10/29 00:07:35;;;;;;;9.15;2.30;;;11.70;99.90;;;;;;4966686;28;20113;-61
2023/10/29 00:10:00;;;;;;;6.20;2.35;;;11.70;99.90;;;;;;4968103;28;20034;-60
2023/10/29 00:12:26;;;;;;;6.75;2.28;;;11.80;99.90;;;;;;4970178;28;20030;-61
2023/10/29 00:14:52;;;;;;;8.93;2.50;;;11.80;99.90;;;;;;4966873;28;20534;-61
2023/10/29 00:17:17;;;;;;;6.97;2.08;;;11.80;99.90;;;;;;4967619;28;20031;-60
2023/10/29 00:19:43;;;;;;;8.40;2.25;;;11.80;99.90;;;;;;4964339;28;20042;-61
2023/10/29 00:22:11;;;;;;;7.47;2.28;;;11.80;99.90;;;;;;4964777;28;20027;-60
2023/10/29 00:24:37;;;;;;;6.63;2.15;;;11.80;99.90;;;;;;4968230;28;20058;-60
2023/10/29 00:27:02;;;;;;;7.90;2.15;;;11.80;99.90;;;;;;4967393;28;20473;-61
2023/10/29 00:29:28;;;;;;;5.88;2.20;;;11.80;99.90;;;;;;4965820;28;20031;-61
2023/10/29 00:31:54;;;;;;;5.68;1.80;;;11.90;99.90;;;;;;4967263;28;20097;-61
2023/10/29 00:34:19;;;;;;;5.65;1.92;;;11.90;99.90;;;;;;4969640;28;20037;-61
2023/10/29 00:36:45;;;;;;;6.25;2.20;;;11.90;99.90;;;;;;4968032;28;20034;-61
2023/10/29 00:39:10;;;;;;;14.18;2.22;;;11.90;99.90;;;;;;4967960;28;20138;-61
2023/10/29 00:41:36;;;;;;;7.22;2.33;;;11.90;99.90;;;;;;4964941;28;20026;-61
2023/10/29 00:44:02;;;;;;;5.80;1.90;;;11.90;99.90;;;;;;4966437;28;20031;-61
2023/10/29 00:46:27;;;;;;;8.82;2.17;;;11.90;99.90;;;;;;4967176;28;20030;-61
2023/10/29 00:48:53;;;;;;;6.30;2.10;;;12.00;99.90;;;;;;4966578;28;20090;-61
2023/10/29 00:51:19;;;;;;;6.88;2.13;;;12.00;99.90;;;;;;4968033;28;20454;-61
2023/10/29 00:53:45;;;;;;;6.28;2.30;;;12.00;99.90;;;;;;4983480;28;20061;-60
2023/10/29 00:56:12;;;;;;;6.03;1.88;;;12.00;99.90;;;;;;4969044;28;20788;-61
2023/10/29 00:58:39;;;;;;;6.90;2.00;;;12.00;99.90;;;;;;4971208;28;20098;-61
2023/10/29 01:01:04;;;;;;;5.72;2.05;;;12.00;99.90;;;;;;4971503;28;20027;-61
2023/10/29 01:03:30;;;;;;;6.72;1.88;;;12.00;99.90;;;;;;4970767;28;20023;-60
2023/10/29 01:05:56;;;;;;;7.20;1.95;;;12.00;99.90;;;;;;4969441;28;20089;-61
2023/10/29 01:08:24;;;;;;;5.47;1.65;;;12.00;99.90;;;;;;4968643;28;20031;-60
2023/10/29 01:10:51;;;;;;;6.63;2.10;;;12.00;99.90;;;;;;4969910;28;20030;-60
2023/10/29 01:13:17;;;;;;;6.57;1.67;;;12.10;99.90;;;;;;4974316;28;20117;-60
2023/10/29 01:15:46;;;;;;;6.13;1.70;;;12.20;99.90;;;;;;4968787;28;20097;-60
2023/10/29 01:18:11;;;;;;;6.18;1.80;;;12.20;99.90;;;;;;4967398;28;20754;-60
2023/10/29 01:20:38;;;;;;;5.45;1.85;;;12.20;99.90;;;;;;4971107;28;20035;-60
2023/10/29 01:23:09;;;;;;;6.97;2.00;;;12.20;99.90;;;;;;4968679;28;20022;-60
2023/10/29 01:25:35;;;;;;;5.78;1.58;;;12.20;99.90;;;;;;4969779;28;20023;-60
2023/10/29 01:28:03;;;;;;;5.85;1.60;;;12.20;99.90;;;;;;4970584;28;20054;-60
2023/10/29 01:30:29;;;;;;;5.47;2.10;;;12.20;99.90;;;;;;4969334;28;20031;-60
2023/10/29 01:32:54;;;;;;;6.68;1.90;;;12.20;99.90;;;;;;4968059;28;20033;-60
2023/10/29 01:35:20;;;;;;;11.30;1.63;;;12.20;99.90;;;;;;4981997;28;20019;-60
2023/10/29 01:37:46;;;;;;;8.68;1.80;;;12.30;99.90;;;;;;4970614;28;20041;-60
2023/10/29 01:40:14;;;;;;;7.35;1.65;;;12.30;99.90;;;;;;4970157;28;20029;-61
2023/10/29 01:42:39;;;;;;;5.50;1.60;;;12.30;99.90;;;;;;4984537;28;20109;-60
2023/10/29 01:45:05;;;;;;;5.40;1.67;;;12.30;99.90;;;;;;4965808;28;20142;-60
2023/10/29 01:47:34;;;;;;;4.50;1.50;;;12.40;99.90;;;;;;4982976;28;20114;-60
2023/10/29 01:50:00;;;;;;;6.75;1.75;;;12.40;99.90;;;;;;4967052;28;20082;-60
2023/10/29 01:52:26;;;;;;;4.47;1.75;;;12.40;99.90;;;;;;4965997;28;20027;-60
2023/10/29 01:54:52;;;;;;;4.45;1.67;;;12.30;99.90;;;;;;4966820;28;20040;-60
2023/10/29 01:57:17;;;;;;;4.25;1.45;;;12.40;99.90;;;;;;4966585;28;20035;-60
2023/10/29 01:59:43;;;;;;;3.90;1.38;;;12.40;99.90;;;;;;4969712;28;20518;-60
2023/10/29 02:02:09;;;;;;;9.18;1.55;;;12.40;99.90;;;;;;4967142;28;20056;-60
2023/10/29 02:04:35;;;;;;;3.92;1.50;;;12.50;99.90;;;;;;4970530;28;20030;-60
2023/10/29 02:07:00;;;;;;;6.40;1.50;;;12.50;99.90;;;;;;4969984;28;20093;-60
2023/10/29 02:09:27;;;;;;;5.22;1.60;;;12.50;99.90;;;;;;4969454;28;20030;-60
2023/10/29 02:11:53;;;;;;;4.72;1.40;;;12.50;99.90;;;;;;4970937;28;20041;-60
2023/10/29 02:14:19;;;;;;;5.60;1.70;;;12.60;99.90;;;;;;4970959;28;20019;-60
2023/10/29 02:16:46;;;;;;;4.63;1.30;;;12.60;99.90;;;;;;4969240;28;20035;-60
2023/10/29 02:19:12;;;;;;;9.88;1.90;;;12.60;99.90;;;;;;4971505;28;20081;-61
2023/10/29 02:21:37;;;;;;;4.97;1.88;;;12.50;99.90;;;;;;4972067;28;20023;-61
2023/10/29 02:24:03;;;;;;;6.72;2.03;;;12.30;99.90;;;;;;4972096;28;20027;-61
2023/10/29 02:26:29;;;;;;;4.80;1.70;;;12.20;99.90;;;;;;4970103;28;20041;-61
2023/10/29 02:28:57;;;;;;;6.63;1.70;;;12.20;99.90;;;;;;4972313;28;20118;-61
2023/10/29 02:31:23;;;;;;;6.55;1.90;;;12.20;99.90;;;;;;4971733;28;20545;-61
2023/10/29 02:33:48;;;;;;;6.10;1.70;;;12.10;99.90;;;;;;4971050;28;20033;-61
2023/10/29 02:36:14;;;;;;;5.13;1.55;;;12.10;99.90;;;;;;4971306;28;20531;-61
2023/10/29 02:38:43;;;;;;;5.90;1.70;;;12.10;99.90;;;;;;4963362;28;20100;-61
2023/10/29 02:41:09;;;;;;;5.18;1.70;;;12.10;99.90;;;;;;4986917;28;20023;-61
2023/10/29 02:43:38;;;;;;;7.38;2.10;;;12.10;99.90;;;;;;4972138;28;20699;-61
2023/10/29 02:46:04;;;;;;;5.90;1.95;;;12.10;99.90;;;;;;4974353;28;20077;-61
2023/10/29 02:48:29;;;;;;;7.97;1.65;;;12.10;99.90;;;;;;4967693;28;20402;-61
2023/10/29 02:50:55;;;;;;;7.70;1.90;;;12.10;99.90;;;;;;4972152;28;20031;-61
2023/10/29 02:53:21;;;;;;;5.47;1.80;;;12.10;99.90;;;;;;4971154;28;20034;-61
2023/10/29 02:55:47;;;;;;;5.13;1.50;;;12.00;99.90;;;;;;4969059;28;20053;-61
2023/10/29 02:58:15;;;;;;;5.75;1.73;;;12.00;99.90;;;;;;4970973;28;20030;-63
2023/10/29 03:00:41;;;;;;;5.47;1.70;;;12.00;99.90;;;;;;4971664;28;20027;-63
2023/10/29 03:03:07;;;;;;;6.95;1.80;;;12.00;99.90;;;;;;4971741;28;20023;-63
2023/10/29 03:05:32;;;;;;;4.63;1.85;;;12.00;99.90;;;;;;4970797;28;20397;-63
2023/10/29 03:07:59;;;;;;;5.50;1.80;;;12.00;99.90;;;;;;4986606;28;20022;-63
2023/10/29 03:10:25;;;;;;;6.82;1.83;;;12.00;99.90;;;;;;4973668;28;20026;-63
2023/10/29 03:12:51;;;;;;;7.50;1.80;;;12.00;99.90;;;;;;4973941;28;20046;-63
2023/10/29 03:15:17;;;;;;;8.70;1.83;;;12.00;99.90;;;;;;4971427;28;20042;-63
2023/10/29 03:17:43;;;;;;;5.30;1.67;;;12.00;99.90;;;;;;4972009;28;20073;-63
2023/10/29 03:20:09;;;;;;;4.90;1.50;;;12.00;99.90;;;;;;4971679;28;20110;-63
2023/10/29 03:22:34;;;;;;;5.60;1.67;;;12.00;99.90;;;;;;4971160;28;20027;-63
2023/10/29 03:25:00;;;;;;;4.00;1.63;;;12.00;99.90;;;;;;4963149;28;20434;-63
2023/10/29 03:27:26;;;;;;;5.25;1.85;;;12.00;99.90;;;;;;4956928;28;20027;-63
2023/10/29 03:29:53;;;;;;;4.55;1.67;;;12.00;99.90;;;;;;4971619;28;20030;-63
2023/10/29 03:32:23;;;;;;;5.45;1.30;;;12.10;99.90;;;;;;4971171;28;20026;-63
2023/10/29 03:34:49;;;;;;;3.92;1.30;;;12.10;99.90;;;;;;4971592;28;20146;-63
2023/10/29 03:37:15;;;;;;;5.95;1.58;;;12.10;99.90;;;;;;4970837;28;20560;-63
2023/10/29 03:39:41;;;;;;;5.35;1.60;;;12.10;99.90;;;;;;4971301;28;20073;-63
2023/10/29 03:42:07;;;;;;;4.90;1.55;;;12.10;99.90;;;;;;4971312;28;20483;-63
2023/10/29 03:44:32;;;;;;;4.47;1.38;;;12.20;99.90;;;;;;4970939;28;20077;-63
2023/10/29 03:46:58;;;;;;;4.95;1.67;;;12.20;99.90;;;;;;4971521;28;20035;-63
2023/10/29 03:49:24;;;;;;;4.53;1.20;;;12.20;99.90;;;;;;4970941;28;20594;-63
2023/10/29 03:51:49;;;;;;;5.80;1.73;;;12.20;99.90;;;;;;4971315;28;20105;-63
2023/10/29 03:54:15;;;;;;;5.38;1.40;;;12.20;99.90;;;;;;4970871;28;20031;-63
2023/10/29 03:56:40;;;;;;;3.28;1.20;;;12.30;99.90;;;;;;4969756;28;20038;-63
2023/10/29 03:59:06;;;;;;;3.33;1.50;;;12.30;99.90;;;;;;4969915;28;20117;-63
2023/10/29 04:01:32;;;;;;;8.70;1.52;;;12.40;99.90;;;;;;4970766;28;20027;-63
2023/10/29 04:03:58;;;;;;;4.93;1.60;;;12.40;99.90;;;;;;4969974;28;20027;-63
2023/10/29 04:06:24;;;;;;;5.18;1.25;;;12.40;99.90;;;;;;4970673;28;20386;-63
2023/10/29 04:08:50;;;;;;;4.63;1.40;;;12.50;99.90;;;;;;4971534;28;20030;-63
2023/10/29 04:11:16;;;;;;;5.18;1.40;;;12.50;99.90;;;;;;4973990;28;20027;-64
2023/10/29 04:13:41;;;;;;;7.32;1.67;;;12.50;99.90;;;;;;4974321;28;20098;-63
2023/10/29 04:16:08;;;;;;;3.28;1.25;;;12.50;99.90;;;;;;4972779;28;20023;-63
2023/10/29 04:18:34;;;;;;;3.47;1.13;;;12.50;99.90;;;;;;4974456;28;20026;-63
2023/10/29 04:21:08;;;;;;;4.57;1.10;;;12.60;99.90;;;;;;4974831;28;20077;-62
2023/10/29 04:23:36;;;;;;;4.75;1.30;;;12.60;99.90;;;;;;4971602;28;20027;-63
2023/10/29 04:26:04;;;;;;;5.88;1.40;;;12.60;99.90;;;;;;4973470;28;20031;-63
2023/10/29 04:28:34;;;;;;;3.38;1.10;;;12.60;99.90;;;;;;4974157;28;20114;-63
2023/10/29 04:31:01;;;;;;;3.20;1.02;;;12.60;99.90;;;;;;4971528;28;20031;-63
2023/10/29 04:33:26;;;;;;;3.33;1.05;;;12.60;99.90;;;;;;4974207;28;20077;-63
2023/10/29 04:35:52;;;;;;;3.53;1.35;;;12.70;99.90;;;;;;4974819;28;20030;-63
2023/10/29 04:38:17;;;;;;;3.70;1.20;;;12.70;99.90;;;;;;4972371;28;20050;-64
2023/10/29 04:40:44;;;;;;;3.92;1.25;;;12.70;99.90;;;;;;4974282;28;20109;-64
2023/10/29 04:43:09;;;;;;;5.88;1.75;;;12.70;99.90;;;;;;4989486;28;20029;-63
2023/10/29 04:45:35;;;;;;;2.72;1.08;;;12.70;99.90;;;;;;4973799;28;20550;-63
2023/10/29 04:48:01;;;;;;;4.47;1.20;;;12.80;99.90;;;;;;4974481;28;20406;-63
2023/10/29 04:50:26;;;;;;;3.90;1.10;;;12.80;99.90;;;;;;4974166;28;20030;-63
2023/10/29 04:52:52;;;;;;;4.85;1.15;;;12.80;99.90;;;;;;4989278;28;20031;-63
2023/10/29 04:55:18;;;;;;;5.07;1.30;;;12.80;99.90;;;;;;4974151;28;20035;-64
2023/10/29 04:57:43;;;;;;;3.35;1.15;;;12.90;99.90;;;;;;4988271;28;20027;-63
2023/10/29 05:00:09;;;;;;;3.25;1.30;;;12.90;99.90;;;;;;4974280;28;20030;-63
2023/10/29 05:02:38;;;;;;;5.55;1.10;;;13.00;99.90;;;;;;4973830;28;20034;-63
2023/10/29 05:05:06;;;;;;;4.43;1.33;;;13.00;99.90;;;;;;4974301;28;20027;-63
2023/10/29 05:07:33;;;;;;;3.42;1.10;;;13.00;99.90;;;;;;4973587;28;20042;-63
2023/10/29 05:09:58;;;;;;;4.50;1.30;;;13.00;99.90;;;;;;4975051;28;20125;-63
2023/10/29 05:12:24;;;;;;;4.68;1.30;;;13.00;99.90;;;;;;4974555;28;20482;-64
2023/10/29 05:14:53;;;;;;;4.80;1.20;;;13.10;99.90;;;;;;4974010;28;20037;-64
2023/10/29 05:17:18;;;;;;;5.05;1.10;;;13.00;99.90;;;;;;4973381;28;20035;-64
2023/10/29 05:19:44;;;;;;;1.98;0.90;;;13.00;99.90;;;;;;4974076;28;20033;-63
2023/10/29 05:22:10;;;;;;;3.70;1.08;;;13.00;99.90;;;;;;4973995;28;20089;-64
2023/10/29 05:24:36;;;;;;;4.63;1.27;;;13.00;99.90;;;;;;4973371;28;20031;-64
2023/10/29 05:27:02;;;;;;;3.42;1.00;;;13.00;99.90;;;;;;4972079;28;20077;-64
2023/10/29 05:29:34;;;;;;;4.05;1.25;;;13.00;99.90;;;;;;4971569;28;20038;-64
2023/10/29 05:32:00;;;;;;;2.70;1.00;;;13.10;99.90;;;;;;4973782;28;20022;-64
2023/10/29 05:34:25;;;;;;;3.30;1.10;;;13.10;99.90;;;;;;4973160;28;20487;-65
2023/10/29 05:36:51;;;;;;;3.83;1.00;;;13.10;99.90;;;;;;4973093;28;20488;-64
2023/10/29 05:39:17;;;;;;;3.47;1.23;;;13.20;99.90;;;;;;4973496;28;20055;-64
2023/10/29 05:41:42;;;;;;;4.22;1.23;;;13.30;99.90;;;;;;4972140;28;20426;-64
2023/10/29 05:44:08;;;;;;;6.78;1.20;;;13.30;99.90;;;;;;4987991;28;20054;-64
2023/10/29 05:46:34;;;;;;;3.10;1.02;;;13.50;99.90;;;;;;4972810;28;20035;-64
2023/10/29 05:48:59;;;;;;;4.55;1.10;;;13.40;99.90;;;;;;4988294;28;20074;-64
2023/10/29 05:51:25;;;;;;;3.80;1.20;;;13.40;99.90;;;;;;4971300;28;20023;-64
2023/10/29 05:53:51;;;;;;;4.28;1.75;;;13.40;99.90;;;;;;4973289;28;20038;-64
2023/10/29 05:56:19;;;;;;;1.73;0.88;;;13.40;99.90;;;;;;4971603;28;20043;-64
2023/10/29 05:58:45;;;;;;;4.82;1.20;;;13.30;99.90;;;;;;4973182;28;20101;-64
2023/10/29 06:01:11;;;;;;;5.20;1.30;;;13.50;99.90;;;;;;4979255;28;20134;-64
2023/10/29 06:03:37;;;;;;;4.85;1.40;;;13.60;99.90;;;;;;4976113;28;20050;-64
2023/10/29 06:06:03;;;;;;;3.70;1.20;;;13.50;99.90;;;;;;4977885;28;20026;-64
2023/10/29 06:08:28;;;;;;;3.85;1.10;;;13.50;99.90;;;;;;4974446;28;20038;-64
2023/10/29 06:10:54;;;;;;;4.90;1.08;;;13.50;99.90;;;;;;4974865;28;20031;-64
2023/10/29 06:13:20;;;;;;;2.53;1.00;;;13.50;99.90;;;;;;4975051;28;20045;-64
2023/10/29 06:15:45;;;;;;;4.55;1.10;;;13.40;99.90;;;;;;4977834;28;20419;-64
2023/10/29 06:18:12;;;;;;;4.88;1.45;;;13.30;99.90;;;;;;4987422;28;20023;-64
2023/10/29 06:20:41;;;;;;;3.83;1.10;;;13.40;99.90;;;;;;4968589;28;20019;-64
2023/10/29 06:23:08;;;;;;;3.40;1.10;;;13.30;99.90;;;;;;4972678;28;20526;-64
2023/10/29 06:25:34;;;;;;;5.13;1.08;;;13.40;99.90;;;;;;4986683;28;20031;-64
2023/10/29 06:27:59;;;;;;;4.13;1.30;;;13.30;99.90;;;;;;4972241;28;20467;-62
2023/10/29 06:30:25;;;;;;;4.78;1.10;;;13.40;99.90;;;;;;4979950;28;20509;-62
2023/10/29 06:32:51;;;;;;;4.18;1.00;;;13.40;99.90;;;;;;4965503;28;20463;-62
2023/10/29 06:35:17;;;;;;;5.82;1.13;;;13.40;99.90;;;;;;4971823;28;20617;-62
2023/10/29 06:37:42;;;;;;;2.72;1.00;;;13.40;99.90;;;;;;4977932;28;20544;-62
2023/10/29 06:40:08;;;;;;;2.72;1.08;;;13.40;99.90;;;;;;4966987;28;20019;-62
2023/10/29 06:42:34;;;;;;;6.47;1.30;;;13.30;99.90;;;;;;4974122;28;20095;-62
2023/10/29 06:45:00;;;;;;;5.40;1.10;;;13.40;99.90;;;;;;4979520;28;20055;-62
2023/10/29 06:47:25;;;;;;;4.32;1.48;;;13.40;99.90;;;;;;4986716;28;20026;-62
2023/10/29 06:49:51;;;;;;;2.65;1.02;;;13.50;99.90;;;;;;4971882;28;20038;-62
2023/10/29 06:52:17;;;;;;;4.05;1.20;;;13.50;99.90;;;;;;4973263;28;20026;-62
2023/10/29 06:54:43;;;;;;;8.20;1.30;;;13.50;99.90;;;;;;4974875;28;20116;-62
2023/10/29 06:57:08;;;;;;;5.28;1.27;;;13.50;99.90;;;;;;4972059;28;20515;-62
2023/10/29 06:59:34;;;;;;;2.55;0.98;;;13.50;99.90;;;;;;4978779;28;20102;-62
2023/10/29 07:02:00;;;;;;;5.00;1.20;;;13.50;99.90;;;;;;4966949;28;20015;-62
2023/10/29 07:04:26;;;;;;;2.80;1.00;;;13.50;99.90;;;;;;4989024;28;20161;-62
2023/10/29 07:06:55;;;;;;;4.10;1.10;;;13.50;99.90;;;;;;4971604;28;20124;-61
2023/10/29 07:09:20;;;;;;;2.38;0.90;;;13.50;99.90;;;;;;4967453;28;20077;-62
2023/10/29 07:11:46;;;;;;;4.38;1.20;;;13.50;99.90;;;;;;4969988;28;20568;-61
2023/10/29 07:14:12;;;;;;;4.38;1.33;;;13.50;99.90;;;;;;4974609;28;20033;-62
2023/10/29 07:16:49;;;;;;;3.78;1.00;;;13.60;99.90;;;;;;4977322;28;20026;-61
2023/10/29 07:19:16;;;;;;;4.03;1.17;;;13.60;99.90;;;;;;4978161;28;20026;-62
2023/10/29 07:21:42;;;;;;;2.70;1.00;;;13.60;99.90;;;;;;4971266;28;20019;-61
2023/10/29 07:24:08;;;;;;;2.50;0.90;;;13.60;99.90;;;;;;4971712;28;20038;-61
2023/10/29 07:26:34;;;;;;;5.50;1.17;;;13.60;99.90;;;;;;4970100;28;20066;-61
2023/10/29 07:29:02;;;;;;;3.67;1.20;;;13.60;99.90;;;;;;4970674;28;20042;-61
2023/10/29 07:31:31;;;;;;;3.83;1.15;;;13.60;99.90;;;;;;4970011;28;20027;-61
2023/10/29 07:33:57;;;;;;;5.43;1.10;;;13.60;99.90;;;;;;4972126;28;20085;-61
2023/10/29 07:36:23;;;;;;;3.40;1.02;;;13.60;99.90;;;;;;4973855;28;20026;-63
2023/10/29 07:38:49;;;;;;;3.85;1.08;;;13.70;99.90;;;;;;4960282;28;20036;-62
2023/10/29 07:41:19;;;;;;;5.32;1.10;;;13.70;99.90;;;;;;4971371;28;20073;-63
2023/10/29 07:43:45;;;;;;;3.45;1.15;;;13.60;99.90;;;;;;4970053;28;20027;-62
2023/10/29 07:46:10;;;;;;;4.63;1.10;;;13.60;99.90;;;;;;4985801;28;20057;-62
2023/10/29 07:48:36;;;;;;;2.90;0.90;;;13.60;99.90;;;;;;4971847;28;20113;-62
2023/10/29 07:51:02;;;;;;;3.97;0.98;;;13.60;99.90;;;;;;4973074;28;20058;-62
2023/10/29 07:53:30;;;;;;;4.75;1.23;;;13.50;99.90;;;;;;4969544;28;20645;-63
2023/10/29 07:56:09;;;;;;;3.17;1.02;;;13.50;99.90;;;;;;4973592;28;20042;-63
2023/10/29 07:58:43;;;;;;;4.60;0.90;;;13.50;99.90;;;;;;4974297;28;20037;-63
2023/10/29 08:01:13;;;;;;;3.53;1.00;;;13.50;99.90;;;;;;4972795;28;20030;-63
2023/10/29 08:03:39;;;;;;;2.70;1.10;;;13.40;99.90;;;;;;4978560;28;20072;-63
2023/10/29 08:06:05;;;;;;;3.03;1.00;;;13.40;99.90;;;;;;4975729;28;20093;-64
2023/10/29 08:08:31;;;;;;;7.15;1.52;;;13.40;99.90;;;;;;4975524;28;20030;-63
2023/10/29 08:10:57;;;;;;;5.70;1.00;;;13.40;99.90;;;;;;4994339;28;20113;-63
2023/10/29 08:13:22;;;;;;;4.80;1.13;;;13.40;99.90;;;;;;4967594;28;20110;-63
2023/10/29 08:15:48;;;;;;;4.60;1.30;;;13.40;99.90;;;;;;4974836;28;20037;-63
2023/10/29 08:18:14;;;;;;;4.38;0.90;;;13.50;99.90;;;;;;4976632;28;20382;-63
2023/10/29 08:20:41;;;;;;;4.57;1.20;;;13.60;99.90;;;;;;4973767;28;20023;-64
2023/10/29 08:23:06;;;;;;;3.38;0.82;;;13.70;99.90;;;;;;4974253;28;20105;-64
2023/10/29 08:25:35;;;;;;;2.25;0.90;;;13.80;99.90;;;;;;4972467;28;20027;-63
2023/10/29 08:28:01;;;;;;;4.22;0.90;;;13.90;99.90;;;;;;4975075;28;20113;-63
2023/10/29 08:30:26;;;;;;;3.65;0.95;;;13.90;99.90;;;;;;4973919;28;20054;-63
2023/10/29 08:32:52;;;;;;;3.28;1.00;;;13.90;99.90;;;;;;4974149;28;20386;-64
2023/10/29 08:35:18;;;;;;;4.93;1.00;;;14.00;99.90;;;;;;4974229;28;20514;-63
2023/10/29 08:37:43;;;;;;;2.38;0.80;;;14.00;99.90;;;;;;4974935;28;20129;-63
2023/10/29 08:40:10;;;;;;;3.10;1.20;;;14.00;99.90;;;;;;4973578;28;20031;-63
2023/10/29 08:42:36;;;;;;;4.32;0.98;;;14.00;99.90;;;;;;4974114;28;20081;-62
2023/10/29 08:45:02;;;;;;;3.33;0.98;;;14.10;99.90;;;;;;4974864;28;20469;-64
2023/10/29 08:47:28;;;;;;;2.70;0.90;;;14.10;99.90;;;;;;5025177;23;20045;-87
2023/10/29 08:49:53;;;;;;;3.85;0.93;;;14.20;99.90;;;;;;5054127;28;20130;-87
2023/10/29 08:52:19;;;;;;;2.78;0.77;;;14.20;99.90;;;;;;5054922;28;20013;-87
2023/10/29 08:54:45;;;;;;;2.03;0.90;;;14.30;99.90;;;;;;5055167;28;20535;-86
2023/10/29 08:57:11;;;;;;;3.47;0.95;;;14.30;99.90;;;;;;5038928;28;20519;-87
2023/10/29 08:59:37;;;;;;;1.92;0.90;;;14.30;99.90;;;;;;5053850;28;20021;-87
2023/10/29 09:02:04;;;;;;;3.15;0.85;;;14.40;99.90;;;;;;5033733;28;20044;-87
2023/10/29 09:04:29;;;;;;;1.92;0.80;;;14.40;99.90;;;;;;5038455;28;20040;-87
2023/10/29 09:06:55;;;;;;;2.28;0.93;;;14.40;99.90;;;;;;5037755;28;20476;-87
2023/10/29 09:09:21;;;;;;;2.95;0.80;;;14.40;99.90;;;;;;5039038;28;20495;-87
2023/10/29 09:11:52;;;;;;;3.67;1.10;;;14.40;99.90;;;;;;5050776;28;20082;-87
2023/10/29 09:14:18;;;;;;;3.10;0.90;;;14.40;99.90;;;;;;5051636;28;20024;-87
2023/10/29 09:16:47;;;;;;;4.53;1.02;;;14.40;99.90;;;;;;5032544;28;20128;-87
2023/10/29 09:19:13;;;;;;;3.35;1.08;;;14.40;99.90;;;;;;5036135;28;20024;-87
2023/10/29 09:21:38;;;;;;;10.52;1.10;;;14.50;99.90;;;;;;5051649;28;20025;-87
2023/10/29 09:24:05;;;;;;;1.50;0.70;;;14.50;99.90;;;;;;5032954;28;20029;-87
2023/10/29 09:26:31;;;;;;;3.60;1.00;;;14.50;99.90;;;;;;5036125;28;20035;-87
2023/10/29 09:28:57;;;;;;;4.03;0.90;;;14.50;99.90;;;;;;5054609;28;20503;-87
2023/10/29 09:31:23;;;;;;;4.30;0.98;;;14.50;99.90;;;;;;5054858;28;20103;-87
2023/10/29 09:33:48;;;;;;;4.03;0.90;;;14.50;99.90;;;;;;5035127;28;20528;-87
2023/10/29 09:36:14;;;;;;;3.95;1.00;;;14.50;99.90;;;;;;5033457;28;20387;-87
2023/10/29 09:38:41;;;;;;;2.85;0.80;;;14.50;99.90;;;;;;5040870;28;20026;-87
2023/10/29 09:41:07;;;;;;;2.08;0.88;;;14.50;99.90;;;;;;5032043;28;20100;-87
2023/10/29 09:43:40;;;;;;;3.20;0.90;;;14.50;99.90;;;;;;5053061;28;20654;-87
2023/10/29 09:46:07;;;;;;;5.60;0.98;;;14.40;99.90;;;;;;5034493;28;20031;-87
2023/10/29 09:48:36;;;;;;;4.68;1.00;;;14.50;99.90;;;;;;5054642;28;20056;-87
2023/10/29 09:51:04;;;;;;;4.07;1.40;;;14.60;99.90;;;;;;5048543;28;20100;-87
2023/10/29 09:53:32;;;;;;;3.20;0.90;;;14.60;99.90;;;;;;5036232;28;20095;-87
2023/10/29 09:55:58;;;;;;;5.32;0.80;;;14.70;99.90;;;;;;5034927;28;20048;-87
2023/10/29 09:58:26;;;;;;;3.47;0.88;;;14.70;99.90;;;;;;5049448;28;20053;-90
2023/10/29 10:00:52;;;;;;;4.80;0.90;;;14.70;99.90;;;;;;5035387;28;20017;-88
2023/10/29 10:03:18;;;;;;;5.10;1.00;;;14.70;99.90;;;;;;5049173;28;20017;-88
2023/10/29 10:05:46;;;;;;;3.80;0.85;;;14.70;99.90;;;;;;5046368;28;20118;-87
2023/10/29 10:08:12;;;;;;;3.40;1.02;;;14.70;99.90;;;;;;5043988;28;20033;-88
2023/10/29 10:10:43;;;;;;;4.00;1.10;;;14.60;99.90;;;;;;5048598;28;20037;-88
2023/10/29 10:13:12;;;;;;;5.15;1.00;;;14.60;99.90;;;;;;5043480;28;20025;-88
2023/10/29 10:15:38;;;;;;;17.85;1.25;;;14.60;99.90;;;;;;5034244;28;20033;-89
2023/10/29 10:18:05;;;;;;;3.92;1.10;;;13.20;99.90;;;;;;5054149;28;20427;-90
2023/10/29 10:20:37;;;;;;;4.00;0.80;;;14.80;99.90;;;;;;5051962;28;20142;-90
2023/10/29 10:23:08;;;;;;;4.07;0.90;;;15.70;99.90;;;;;;5040382;28;20480;-90
2023/10/29 10:25:34;;;;;;;4.60;0.85;;;16.70;99.90;;;;;;5047053;28;20025;-91
2023/10/29 10:28:03;;;;;;;3.47;0.90;;;17.40;99.90;;;;;;5031891;28;20039;-91
2023/10/29 10:30:38;;;;;;;2.85;0.80;;;18.10;99.10;;;;;;5035136;28;20033;-90
2023/10/29 10:33:10;;;;;;;4.07;1.00;;;18.40;96.40;;;;;;5029742;28;20080;-89
2023/10/29 10:35:45;;;;;;;4.22;1.13;;;18.30;96.30;;;;;;5039209;28;20489;-89
2023/10/29 10:38:12;;;;;;;2.05;0.70;;;17.60;98.20;;;;;;5034648;28;20025;-88
2023/10/29 10:40:38;;;;;;;5.25;1.02;;;17.00;99.90;;;;;;5042052;28;20108;-89
2023/10/29 10:43:08;;;;;;;4.22;1.13;;;16.50;99.90;;;;;;5030675;28;20021;-88
2023/10/29 10:45:35;;;;;;;1.35;0.68;;;16.20;99.90;;;;;;5048541;28;20132;-89
2023/10/29 10:48:06;;;;;;;6.45;1.30;;;16.20;99.90;;;;;;5051414;28;20060;-88
2023/10/29 10:50:33;;;;;;;5.45;1.00;;;16.20;99.90;;;;;;5047601;28;20040;-89
2023/10/29 10:52:59;;;;;;;4.13;1.00;;;16.20;99.90;;;;;;5049519;28;20855;-88
2023/10/29 10:55:25;;;;;;;4.03;1.00;;;16.40;99.90;;;;;;5036196;28;20691;-88
2023/10/29 10:57:52;;;;;;;5.18;1.17;;;16.70;99.90;;;;;;5045513;28;20488;-88
2023/10/29 11:00:24;;;;;;;3.20;0.90;;;17.10;99.90;;;;;;5028356;28;20729;-88
2023/10/29 11:02:55;;;;;;;6.47;1.77;;;17.70;98.10;;;;;;5028711;28;20443;-88
2023/10/29 11:05:21;;;;;;;4.15;1.00;;;18.00;95.40;;;;;;5030023;28;20028;-88
2023/10/29 11:07:47;;;;;;;4.38;1.10;;;18.10;95.30;;;;;;5033603;28;20086;-88
2023/10/29 11:10:14;;;;;;;3.83;1.00;;;18.10;95.60;;;;;;5050433;28;20434;-88
2023/10/29 11:12:40;;;;;;;5.22;1.20;;;17.30;96.30;;;;;;5045470;28;20035;-88
2023/10/29 11:15:15;;;;;;;3.88;1.08;;;16.70;99.10;;;;;;5024261;28;20503;-88
2023/10/29 11:17:59;;;;;;;3.40;1.10;;;16.20;99.90;;;;;;5044101;28;20036;-88
2023/10/29 11:20:45;;;;;;;6.30;1.10;;;15.80;99.90;;;;;;5043292;28;20563;-88
2023/10/29 11:23:23;;;;;;;3.47;1.00;;;15.60;99.90;;;;;;5047852;28;20025;-88
2023/10/29 11:25:49;;;;;;;6.50;1.10;;;15.60;99.90;;;;;;5019878;28;20098;-88
2023/10/29 11:28:24;;;;;;;3.75;0.93;;;15.60;99.90;;;;;;5047310;28;20028;-87
2023/10/29 11:31:15;;;;;;;4.00;0.93;;;15.60;99.90;;;;;;5023042;28;20063;-88
2023/10/29 11:33:45;;;;;;;5.22;1.20;;;15.60;99.90;;;;;;5029241;28;20055;-88
2023/10/29 11:36:37;;;;;;;6.70;1.05;;;15.70;99.90;;;;;;5025202;28;20060;-88
2023/10/29 11:39:15;;;;;;;3.10;0.88;;;15.90;99.90;;;;;;5045422;28;20091;-88
2023/10/29 11:41:41;;;;;;;5.22;1.20;;;16.10;99.90;;;;;;5035959;28;20024;-88
2023/10/29 11:44:19;;;;;;;4.32;1.15;;;16.30;99.90;;;;;;5039637;28;20060;-88
2023/10/29 11:47:03;;;;;;;3.38;1.15;;;16.40;99.90;;;;;;5041642;28;20022;-88
2023/10/29 11:49:50;;;;;;;5.10;1.20;;;16.40;99.90;;;;;;5043087;28;20040;-88
2023/10/29 11:52:17;;;;;;;2.88;0.93;;;16.20;99.90;;;;;;5028089;28;20029;-88
2023/10/29 11:54:43;;;;;;;3.55;1.00;;;16.00;99.90;;;;;;5032112;28;20547;-88
2023/10/29 11:57:09;;;;;;;3.92;0.93;;;15.80;99.90;;;;;;5031530;28;20117;-88
2023/10/29 11:59:52;;;;;;;2.75;1.08;;;15.60;99.90;;;;;;5027234;28;20017;-88
2023/10/29 12:02:17;;;;;;;3.95;1.23;;;15.50;99.90;;;;;;5047032;28;20025;-88
2023/10/29 12:04:43;;;;;;;4.63;1.15;;;15.40;99.90;;;;;;5033776;28;20446;-88
2023/10/29 12:07:22;;;;;;;3.08;1.10;;;15.30;99.90;;;;;;5045048;28;20031;-88
2023/10/29 12:09:59;;;;;;;3.35;1.20;;;15.20;99.90;;;;;;5032464;28;20103;-88
2023/10/29 12:12:25;;;;;;;3.92;1.08;;;15.20;99.90;;;;;;5033263;28;20123;-88
2023/10/29 12:14:50;;;;;;;6.18;1.40;;;15.20;99.90;;;;;;5043902;28;20141;-88
2023/10/29 12:17:16;;;;;;;3.08;1.00;;;15.20;99.90;;;;;;5030574;28;20055;-88
2023/10/29 12:19:44;;;;;;;3.85;1.00;;;15.20;99.90;;;;;;5031332;28;20111;-88
2023/10/29 12:22:14;;;;;;;6.55;1.10;;;15.10;99.90;;;;;;5030674;28;20853;-88
2023/10/29 12:24:40;;;;;;;6.40;1.13;;;15.10;99.90;;;;;;5046285;28;20021;-88
2023/10/29 12:27:07;;;;;;;2.55;0.90;;;15.00;99.90;;;;;;5028502;28;20063;-89
2023/10/29 12:29:33;;;;;;;3.30;1.00;;;14.90;99.90;;;;;;5046162;28;20057;-89
2023/10/29 12:31:58;;;;;;;3.65;1.15;;;14.90;99.90;;;;;;5046351;28;20103;-89
2023/10/29 12:34:24;;;;;;;3.72;1.40;;;14.80;99.90;;;;;;5062276;28;20055;-89
2023/10/29 12:36:49;;;;;;;3.97;1.20;;;14.60;99.90;;;;;;5045728;28;20483;-90
2023/10/29 12:39:18;;;;;;;5.65;1.20;;;14.30;99.90;;;;;;5035908;28;20009;-90
2023/10/29 12:41:52;;;;;;;4.05;1.30;;;14.00;99.90;;;;;;5029933;28;20049;-91
2023/10/29 12:44:18;;;;;;;5.78;1.40;;;13.70;99.90;;;;;;5034997;28;20028;-90